Time;durP1;ratioP1;P1;durP2;ratioP2;P2;SDS_P1;SDS_P2;PMS_P1;PMS_P2;Temp;Humidity;BMP_temperature;BMP_pressure;BME280_temperature;BME280_humidity;BME280_pressure;Samples;Min_cycle;Max_cycle;Signal;HPM_P1;HPM_P2
2021/05/03 00:02:21;;;;;;;8.20;6.53;;;;;;;6.53;75.47;98732.30;124855;1096;64326;-83
2021/05/03 00:04:48;;;;;;;6.80;6.10;;;;;;;6.57;75.95;98732.97;124884;1096;64355;-83
2021/05/03 00:07:15;;;;;;;10.47;7.53;;;;;;;6.60;75.95;98749.53;124901;1101;64778;-83
2021/05/03 00:09:42;;;;;;;9.90;7.80;;;;;;;6.62;75.98;98738.88;124887;1096;64336;-83
2021/05/03 00:12:09;;;;;;;9.25;7.35;;;;;;;6.66;76.06;98750.14;124845;1096;64261;-84
2021/05/03 00:14:36;;;;;;;11.63;8.00;;;;;;;6.64;75.83;98744.94;124877;1101;64346;-83
2021/05/03 00:17:04;;;;;;;9.70;8.50;;;;;;;6.62;76.02;98746.81;124832;1101;64333;-83
2021/05/03 00:19:31;;;;;;;10.97;8.27;;;;;;;6.58;75.95;98755.84;124902;1101;64384;-83
2021/05/03 00:21:57;;;;;;;9.57;8.30;;;;;;;6.54;76.04;98757.82;124837;1101;64355;-86
2021/05/03 00:24:24;;;;;;;9.73;8.60;;;;;;;6.53;76.19;98771.13;124931;1101;64694;-84
2021/05/03 00:26:51;;;;;;;11.55;9.45;;;;;;;6.50;76.04;98772.17;124839;1096;64335;-85
2021/05/03 00:29:17;;;;;;;13.20;11.17;;;;;;;6.47;76.62;98763.52;124931;1095;64365;-85
2021/05/03 00:31:44;;;;;;;12.45;11.05;;;;;;;6.42;76.96;98766.41;124910;1096;64303;-85
2021/05/03 00:34:11;;;;;;;12.87;10.50;;;;;;;6.40;77.31;98764.78;124904;1101;64416;-85
2021/05/03 00:36:37;;;;;;;12.60;10.80;;;;;;;6.39;77.43;98771.88;124811;1096;64314;-85
2021/05/03 00:39:04;;;;;;;11.73;10.03;;;;;;;6.34;77.67;98769.47;124888;1101;64428;-84
2021/05/03 00:41:31;;;;;;;11.93;10.00;;;;;;;6.31;77.81;98766.14;124932;1101;64429;-85
2021/05/03 00:43:58;;;;;;;11.83;9.67;;;;;;;6.29;78.29;98770.66;124838;1101;64345;-85
2021/05/03 00:46:25;;;;;;;9.40;7.70;;;;;;;6.28;78.45;98767.16;124856;1096;64342;-85
2021/05/03 00:48:52;;;;;;;9.97;8.83;;;;;;;6.26;78.77;98768.17;124920;1096;64422;-86
2021/05/03 00:51:19;;;;;;;10.13;8.97;;;;;;;6.25;79.00;98766.48;124890;1101;64339;-87
2021/05/03 00:53:46;;;;;;;11.10;8.33;;;;;;;6.24;79.47;98775.33;124869;1101;64479;-84
2021/05/03 00:56:13;;;;;;;10.00;9.00;;;;;;;6.20;79.71;98772.00;124799;1096;64486;-84
2021/05/03 00:58:40;;;;;;;11.23;9.43;;;;;;;6.17;79.55;98776.61;124908;1101;64425;-81
2021/05/03 01:01:07;;;;;;;9.73;8.83;;;;;;;6.14;79.81;98765.25;124580;1103;64396;-82
2021/05/03 01:03:34;;;;;;;11.33;9.30;;;;;;;6.13;79.99;98773.25;125011;1096;64358;-81
2021/05/03 01:06:00;;;;;;;10.27;8.70;;;;;;;6.13;80.33;98783.84;124947;1096;64329;-85
2021/05/03 01:08:27;;;;;;;9.13;8.23;;;;;;;6.13;80.55;98781.19;124931;1096;64450;-84
2021/05/03 01:10:54;;;;;;;8.70;7.85;;;;;;;6.15;80.69;98788.11;125802;1101;64339;-84
2021/05/03 01:13:21;;;;;;;9.70;8.70;;;;;;;6.17;80.98;98790.69;124978;1101;64249;-84
2021/05/03 01:15:48;;;;;;;11.77;9.13;;;;;;;6.14;80.76;98788.21;124798;1096;64344;-86
2021/05/03 01:18:14;;;;;;;10.80;9.70;;;;;;;6.16;80.95;98791.61;124790;1101;64339;-85
2021/05/03 01:20:42;;;;;;;10.17;8.90;;;;;;;6.13;81.05;98797.95;124849;1101;64265;-83
2021/05/03 01:23:09;;;;;;;9.87;8.80;;;;;;;6.10;81.18;98792.78;124838;1096;64339;-83
2021/05/03 01:25:41;;;;;;;10.30;9.30;;;;;;;6.07;81.17;98794.75;124840;1096;64330;-82
2021/05/03 01:28:08;;;;;;;9.30;8.50;;;;;;;6.03;81.22;98793.18;124889;1101;64339;-83
2021/05/03 01:30:41;;;;;;;9.77;8.77;;;;;;;6.02;81.38;98800.27;124800;1101;64406;-83
2021/05/03 01:33:10;;;;;;;8.93;7.60;;;;;;;6.03;81.73;98796.70;124869;1096;64565;-82
2021/05/03 01:35:38;;;;;;;9.90;7.55;;;;;;;6.01;81.37;98793.28;124945;1096;64326;-81
2021/05/03 01:38:07;;;;;;;8.00;7.17;;;;;;;6.02;81.67;98800.27;124917;1101;64335;-83
2021/05/03 01:40:40;;;;;;;7.83;6.63;;;;;;;6.02;81.39;98800.27;124889;1096;64364;-82
2021/05/03 01:43:18;;;;;;;6.60;5.97;;;;;;;6.03;81.46;98809.93;124917;1097;64395;-82
2021/05/03 01:45:46;;;;;;;6.67;5.97;;;;;;;6.02;81.32;98807.35;124955;1101;64377;-82
2021/05/03 01:48:25;;;;;;;8.60;5.60;;;;;;;6.02;80.86;98808.20;124952;1096;64265;-82
2021/05/03 01:50:54;;;;;;;6.07;5.40;;;;;;;6.03;80.70;98804.64;124890;1101;64345;-84
2021/05/03 01:53:21;;;;;;;7.43;6.73;;;;;;;6.03;80.87;98802.00;124862;1096;64243;-84
2021/05/03 01:55:53;;;;;;;6.27;5.67;;;;;;;6.04;81.03;98801.05;124901;1101;64342;-84
2021/05/03 01:58:22;;;;;;;7.40;5.80;;;;;;;6.04;80.47;98797.55;124898;1096;64332;-85
2021/05/03 02:00:49;;;;;;;6.30;5.80;;;;;;;6.02;80.41;98799.42;124862;1101;64358;-85
2021/05/03 02:03:25;;;;;;;6.70;6.07;;;;;;;6.01;80.22;98801.21;124659;1096;64326;-84
2021/05/03 02:05:52;;;;;;;7.67;6.20;;;;;;;5.98;80.42;98798.73;124895;1096;64326;-84
2021/05/03 02:08:19;;;;;;;6.63;5.93;;;;;;;5.98;80.29;98803.14;124895;1101;64450;-85
2021/05/03 02:10:50;;;;;;;5.87;5.37;;;;;;;5.95;80.16;98806.83;124885;1101;64401;-85
2021/05/03 02:13:18;;;;;;;5.67;5.17;;;;;;;5.95;80.07;98814.77;124926;1096;64425;-84
2021/05/03 02:15:48;;;;;;;5.67;4.80;;;;;;;5.94;80.01;98815.67;124879;1101;64308;-84
2021/05/03 02:18:16;;;;;;;5.25;4.50;;;;;;;5.92;79.90;98810.45;124837;1096;64387;-84
2021/05/03 02:20:44;;;;;;;5.67;5.10;;;;;;;5.93;80.05;98812.19;124903;1096;64266;-85
2021/05/03 02:23:11;;;;;;;5.67;5.17;;;;;;;5.95;79.86;98822.70;124903;1101;64400;-85
2021/05/03 02:25:38;;;;;;;5.63;5.13;;;;;;;5.96;79.92;98815.61;124831;1096;64316;-84
2021/05/03 02:28:05;;;;;;;6.07;5.47;;;;;;;5.96;79.79;98826.19;124857;1096;64355;-84
2021/05/03 02:30:33;;;;;;;6.53;5.83;;;;;;;5.92;79.86;98822.80;124865;1101;64269;-84
2021/05/03 02:33:00;;;;;;;6.07;5.47;;;;;;;5.91;79.66;98823.73;124790;1101;64367;-84
2021/05/03 02:35:29;;;;;;;6.53;5.93;;;;;;;5.90;79.62;98829.98;124906;1095;64496;-84
2021/05/03 02:37:57;;;;;;;6.20;5.60;;;;;;;5.90;79.70;98828.18;124868;1101;64408;-85
2021/05/03 02:40:25;;;;;;;6.83;6.10;;;;;;;5.91;79.85;98829.88;124818;1096;64358;-84
2021/05/03 02:42:54;;;;;;;6.43;5.83;;;;;;;5.89;79.57;98822.95;124885;1101;64329;-85
2021/05/03 02:45:22;;;;;;;8.30;7.10;;;;;;;5.88;79.44;98839.77;124935;1101;64348;-85
2021/05/03 02:47:50;;;;;;;7.63;6.83;;;;;;;5.87;79.55;98838.92;124913;1096;64364;-85
2021/05/03 02:50:17;;;;;;;7.30;6.00;;;;;;;5.85;79.62;98834.64;124834;1101;64406;-84
2021/05/03 02:52:44;;;;;;;6.70;5.97;;;;;;;5.83;79.37;98839.14;124863;1096;64339;-84
2021/05/03 02:55:12;;;;;;;6.30;5.70;;;;;;;5.81;79.42;98841.84;124844;1096;64325;-84
2021/05/03 02:57:42;;;;;;;7.10;6.30;;;;;;;5.80;79.76;98844.59;124846;1096;64323;-83
2021/05/03 03:00:11;;;;;;;;;;;;;;;5.76;79.47;98846.52;124857;1101;64326;-83
2021/05/03 03:02:37;;;;;;;6.47;5.77;;;;;;;5.75;79.56;98852.74;124852;1096;64367;-82
2021/05/03 03:05:05;;;;;;;7.20;6.10;;;;;;;5.75;79.56;98857.19;124871;1096;64301;-83
2021/05/03 03:07:32;;;;;;;5.63;5.10;;;;;;;5.73;79.79;98851.95;124847;1096;64329;-84
2021/05/03 03:09:58;;;;;;;6.17;5.57;;;;;;;5.73;79.64;98855.45;124575;1102;64473;-82
2021/05/03 03:12:26;;;;;;;6.00;5.40;;;;;;;5.76;79.88;98867.66;124828;1101;64408;-83
2021/05/03 03:14:52;;;;;;;6.93;6.30;;;;;;;5.79;80.08;98877.23;124845;1101;64326;-85
2021/05/03 03:17:19;;;;;;;6.40;5.80;;;;;;;5.79;80.14;98886.02;124782;1101;64392;-84
2021/05/03 03:19:47;;;;;;;7.40;6.70;;;;;;;5.80;80.04;98879.81;124901;1101;64293;-84
2021/05/03 03:22:13;;;;;;;7.03;6.33;;;;;;;5.81;80.36;98886.80;124824;1101;64413;-84
2021/05/03 03:24:40;;;;;;;6.80;6.20;;;;;;;5.82;80.54;98890.30;124953;1096;64330;-83
2021/05/03 03:27:07;;;;;;;7.40;6.60;;;;;;;5.82;80.69;98891.19;124879;1101;64301;-83
2021/05/03 03:29:34;;;;;;;9.03;8.00;;;;;;;5.81;80.61;98905.31;124830;1101;64339;-82
2021/05/03 03:32:01;;;;;;;12.37;11.17;;;;;;;5.81;80.90;98899.18;124849;1096;64339;-83
2021/05/03 03:34:28;;;;;;;14.23;13.03;;;;;;;5.82;80.96;98900.88;124866;1101;64394;-83
2021/05/03 03:36:54;;;;;;;14.43;12.97;;;;;;;5.81;81.16;98902.67;124830;1101;64808;-83
2021/05/03 03:39:21;;;;;;;11.23;10.13;;;;;;;5.82;81.37;98906.16;124820;1101;64358;-82
2021/05/03 03:41:48;;;;;;;10.63;9.63;;;;;;;5.84;81.25;98902.52;124843;1096;64299;-82
2021/05/03 03:44:14;;;;;;;10.37;9.47;;;;;;;5.87;81.80;98918.27;124865;1096;64282;-83
2021/05/03 03:46:41;;;;;;;10.43;9.43;;;;;;;5.89;81.89;98919.02;124687;1101;64396;-83
2021/05/03 03:49:08;;;;;;;10.30;9.40;;;;;;;5.93;81.93;98922.39;124842;1096;64403;-85
2021/05/03 03:51:36;;;;;;;10.43;9.33;;;;;;;5.94;82.07;98924.97;125172;1101;64355;-83
2021/05/03 03:54:03;;;;;;;11.75;10.65;;;;;;;5.97;81.88;98923.11;124892;1101;64332;-83
2021/05/03 03:56:30;;;;;;;11.10;9.87;;;;;;;5.99;81.74;98916.81;124969;1096;64333;-82
2021/05/03 03:58:58;;;;;;;11.20;10.10;;;;;;;6.04;81.88;98916.59;125010;1101;64383;-83
2021/05/03 04:01:26;;;;;;;10.63;9.73;;;;;;;6.08;81.66;98908.44;124836;1095;64323;-84
2021/05/03 04:03:56;;;;;;;11.27;10.17;;;;;;;6.13;81.99;98911.72;124836;1101;64284;-87
2021/05/03 04:27:35;;;;;;;10.53;9.53;;;;;;;6.68;79.44;98920.39;124871;1094;64387;-84
2021/05/03 04:30:07;;;;;;;9.03;8.10;;;;;;;6.77;78.74;98923.42;124804;1096;64329;-84
2021/05/03 04:32:35;;;;;;;9.50;8.50;;;;;;;6.86;77.98;98929.17;124612;1096;64419;-84
2021/05/03 04:35:03;;;;;;;8.20;7.40;;;;;;;6.88;77.44;98927.30;124878;1096;64329;-84
2021/05/03 04:37:30;;;;;;;8.55;6.75;;;;;;;6.87;76.67;98930.88;124829;1096;64309;-86
2021/05/03 04:39:57;;;;;;;6.23;5.63;;;;;;;6.88;76.55;98930.80;124828;1101;64364;-86
2021/05/03 04:42:24;;;;;;;5.60;4.70;;;;;;;6.88;74.43;98935.25;124853;1101;64323;-86
2021/05/03 04:44:50;;;;;;;4.93;4.43;;;;;;;6.85;74.67;98930.97;124897;1101;64332;-85
2021/05/03 04:47:17;;;;;;;5.10;4.23;;;;;;;6.84;74.11;98947.78;124596;1101;64411;-85
2021/05/03 04:49:44;;;;;;;5.30;4.33;;;;;;;6.83;74.18;98938.14;124889;1096;64355;-84
2021/05/03 04:52:10;;;;;;;4.40;4.00;;;;;;;6.82;73.95;98947.03;124851;1101;64429;-85
2021/05/03 04:54:37;;;;;;;5.47;4.37;;;;;;;6.81;74.05;98947.95;124863;1096;64323;-84
2021/05/03 04:57:04;;;;;;;5.73;4.23;;;;;;;6.79;74.80;98947.16;124906;1096;64269;-84
2021/05/03 04:59:31;;;;;;;5.10;4.20;;;;;;;6.80;74.69;98948.89;124856;1096;64438;-85
2021/05/03 05:01:58;;;;;;;6.27;5.20;;;;;;;6.80;74.58;98952.39;124815;1101;64323;-85
2021/05/03 05:04:25;;;;;;;5.37;4.87;;;;;;;6.80;73.32;98951.55;124887;1096;64338;-85
2021/05/03 05:06:52;;;;;;;4.27;3.70;;;;;;;6.78;72.97;98951.61;124894;1101;64310;-85
2021/05/03 05:09:18;;;;;;;4.97;3.77;;;;;;;6.79;72.78;98949.81;124880;1096;64384;-85
2021/05/03 05:11:46;;;;;;;4.17;3.77;;;;;;;6.82;73.46;98954.98;124819;1096;64358;-85
2021/05/03 05:14:12;;;;;;;4.80;4.40;;;;;;;6.84;72.78;98950.43;124797;1101;64328;-84
2021/05/03 05:16:40;;;;;;;5.30;4.80;;;;;;;6.87;73.54;98954.71;124910;1101;64409;-83
2021/05/03 05:19:07;;;;;;;5.90;4.70;;;;;;;6.85;72.86;98954.81;124890;1101;64742;-83
2021/05/03 05:21:37;;;;;;;4.77;4.27;;;;;;;6.85;72.77;98962.76;124906;1102;64313;-83
2021/05/03 05:24:04;;;;;;;;;;;;;;;6.86;71.96;98960.95;124889;1101;64326;-84
2021/05/03 05:26:31;;;;;;;4.40;3.90;;;;;;;6.87;72.51;98968.81;124866;1101;64416;-83
2021/05/03 05:28:58;;;;;;;3.73;3.37;;;;;;;6.88;72.01;98961.74;124921;1096;64246;-83
2021/05/03 05:31:24;;;;;;;3.17;2.83;;;;;;;6.87;70.68;98968.81;124881;1101;64335;-84
2021/05/03 05:33:51;;;;;;;3.10;2.60;;;;;;;6.87;70.44;98973.25;124822;1096;64315;-84
2021/05/03 05:36:19;;;;;;;4.63;3.07;;;;;;;6.86;71.40;98972.41;124830;1101;64310;-83
2021/05/03 05:38:45;;;;;;;3.07;2.60;;;;;;;6.86;69.77;98975.05;124814;1096;64447;-82
2021/05/03 05:41:14;;;;;;;3.03;2.30;;;;;;;6.88;70.54;98982.94;124847;1096;64355;-81
2021/05/03 05:43:41;;;;;;;2.83;2.53;;;;;;;6.87;70.90;98987.34;124832;1096;64333;-85
2021/05/03 05:46:08;;;;;;;3.30;3.00;;;;;;;6.89;71.03;98995.23;124841;1096;64333;-84
2021/05/03 05:48:36;;;;;;;3.90;3.33;;;;;;;6.89;70.70;98992.58;124847;1101;64281;-81
2021/05/03 05:51:04;;;;;;;3.70;2.87;;;;;;;6.87;70.63;98989.15;124880;1101;64432;-82
2021/05/03 05:53:32;;;;;;;3.30;2.83;;;;;;;6.87;69.81;98999.75;124918;1101;64457;-84
2021/05/03 05:56:00;;;;;;;3.33;3.03;;;;;;;6.87;70.24;98999.75;124866;1101;64361;-82
2021/05/03 05:58:32;;;;;;;3.43;2.73;;;;;;;6.86;70.28;98993.59;124866;1101;64352;-84
2021/05/03 06:01:03;;;;;;;3.40;2.83;;;;;;;6.86;68.99;99000.70;124824;1101;64337;-83
2021/05/03 06:03:30;;;;;;;3.75;3.35;;;;;;;6.89;70.02;98993.44;124849;1101;64402;-83
2021/05/03 06:05:57;;;;;;;4.10;3.53;;;;;;;6.92;69.93;99003.86;124845;1096;64306;-83
2021/05/03 06:08:25;;;;;;;4.40;3.67;;;;;;;6.92;70.35;99000.36;124842;1101;64306;-83
2021/05/03 06:10:54;;;;;;;4.00;3.60;;;;;;;6.91;70.25;99002.16;124912;1101;64339;-83
2021/05/03 06:13:21;;;;;;;6.10;4.43;;;;;;;6.92;70.78;99003.02;124832;1101;64261;-85
2021/05/03 06:15:48;;;;;;;5.60;5.10;;;;;;;6.96;71.17;99007.23;124838;1101;64400;-84
2021/05/03 06:18:14;;;;;;;6.40;5.70;;;;;;;6.98;71.17;99011.52;124817;1096;64278;-85
2021/05/03 06:20:41;;;;;;;7.20;6.40;;;;;;;6.99;71.92;99012.37;124841;1101;64282;-83
2021/05/03 06:23:11;;;;;;;9.33;8.30;;;;;;;6.95;72.34;99010.80;124850;1101;64310;-83
2021/05/03 06:25:38;;;;;;;;;;;;;;;6.90;72.52;99012.83;124879;1101;64310;-84
2021/05/03 06:28:05;;;;;;;11.20;9.93;;;;;;;6.81;73.07;99015.02;124869;1101;64412;-85
2021/05/03 06:30:32;;;;;;;12.17;9.40;;;;;;;6.76;73.46;99024.14;124857;1101;64460;-84
2021/05/03 06:32:59;;;;;;;11.25;9.30;;;;;;;6.70;73.68;99025.31;124833;1101;64480;-83
2021/05/03 06:35:26;;;;;;;9.90;8.60;;;;;;;6.66;73.71;99031.72;124819;1101;64352;-85
2021/05/03 06:37:53;;;;;;;11.47;9.37;;;;;;;6.66;73.93;99036.13;125131;1101;64362;-83
2021/05/03 06:40:20;;;;;;;10.07;8.93;;;;;;;6.63;74.03;99039.78;124980;1096;64346;-86
2021/05/03 06:42:49;;;;;;;12.13;8.67;;;;;;;6.59;74.31;99051.48;124873;1096;64437;-85
2021/05/03 06:45:18;;;;;;;10.47;8.77;;;;;;;6.55;74.50;99053.41;125323;1096;64339;-84
2021/05/03 06:47:45;;;;;;;10.40;8.33;;;;;;;6.61;74.58;99049.63;124946;1101;64278;-85
2021/05/03 06:50:13;;;;;;;9.93;8.60;;;;;;;6.74;74.74;99055.13;124835;1101;64365;-83
2021/05/03 06:52:44;;;;;;;10.95;8.95;;;;;;;6.95;74.92;99054.08;124805;1096;64326;-84
2021/05/03 06:55:12;;;;;;;13.50;8.80;;;;;;;7.11;74.85;99050.61;124884;1101;64506;-83
2021/05/03 06:57:40;;;;;;;10.33;7.93;;;;;;;7.20;74.08;99053.64;124890;1102;64319;-82
2021/05/03 07:00:10;;;;;;;9.90;8.50;;;;;;;7.28;74.02;99047.09;124908;1101;64684;-84
2021/05/03 07:02:37;;;;;;;8.30;7.45;;;;;;;7.40;73.89;99059.71;124928;1096;64339;-83
2021/05/03 07:05:04;;;;;;;10.47;9.57;;;;;;;7.59;74.15;99059.58;124829;1101;64503;-83
2021/05/03 07:07:31;;;;;;;7.63;6.93;;;;;;;7.82;72.95;99053.01;124824;1101;64453;-83
2021/05/03 07:09:58;;;;;;;7.70;6.90;;;;;;;7.93;71.79;99055.10;124860;1102;64426;-83
2021/05/03 07:12:26;;;;;;;8.50;7.07;;;;;;;7.94;72.46;99062.95;124920;1096;64430;-84
2021/05/03 07:14:53;;;;;;;9.47;7.90;;;;;;;7.97;72.02;99068.09;124832;1096;64336;-83
2021/05/03 07:17:21;;;;;;;9.73;8.70;;;;;;;7.97;71.99;99076.05;124820;1096;64336;-84
2021/05/03 07:19:48;;;;;;;8.97;8.07;;;;;;;7.94;71.85;99070.07;124849;1096;64359;-83
2021/05/03 07:22:14;;;;;;;9.97;8.67;;;;;;;7.88;71.68;99063.30;124853;1096;64415;-83
2021/05/03 07:24:42;;;;;;;13.67;11.13;;;;;;;7.82;71.84;99068.92;124827;1096;64323;-83
2021/05/03 07:27:11;;;;;;;13.10;10.50;;;;;;;7.75;71.26;99078.18;124889;1101;64310;-85
2021/05/03 07:29:39;;;;;;;11.00;9.90;;;;;;;7.71;71.70;99072.16;124943;1101;64374;-83
2021/05/03 07:32:06;;;;;;;9.63;8.73;;;;;;;7.71;71.52;99080.13;124813;1096;64345;-83
2021/05/03 07:34:34;;;;;;;7.90;6.93;;;;;;;7.80;71.23;99074.34;124910;1101;64307;-84
2021/05/03 07:37:03;;;;;;;8.53;6.70;;;;;;;7.94;68.61;99084.19;124837;1101;64284;-83
2021/05/03 07:39:30;;;;;;;5.90;4.70;;;;;;;8.25;69.05;99086.01;124852;1101;64377;-83
2021/05/03 07:41:57;;;;;;;6.53;4.87;;;;;;;8.56;68.80;99081.66;124985;1101;64473;-84
2021/05/03 07:44:25;;;;;;;4.53;4.13;;;;;;;8.82;66.80;99082.81;124853;1096;64326;-84
2021/05/03 07:46:53;;;;;;;6.53;4.67;;;;;;;9.04;66.25;99086.86;124765;1101;64815;-82
2021/05/03 07:49:21;;;;;;;4.30;3.90;;;;;;;9.13;66.02;99088.95;124843;1101;64281;-82
2021/05/03 07:51:48;;;;;;;3.83;3.03;;;;;;;9.04;65.03;99090.37;124819;1101;64272;-83
2021/05/03 07:54:15;;;;;;;3.20;2.90;;;;;;;8.94;64.09;99090.05;124846;1096;64461;-82
2021/05/03 07:56:45;;;;;;;4.17;3.03;;;;;;;8.88;63.85;99093.08;124963;1096;64328;-86
2021/05/03 07:59:13;;;;;;;3.23;2.67;;;;;;;8.95;64.61;99101.53;125080;1101;64771;-85
2021/05/03 08:01:40;;;;;;;4.20;3.60;;;;;;;9.04;64.96;99105.47;124942;1101;64442;-84
2021/05/03 08:04:07;;;;;;;2.17;1.97;;;;;;;9.15;64.09;99101.22;124812;1096;64281;-83
2021/05/03 08:06:34;;;;;;;1.90;1.80;;;;;;;9.16;62.76;99102.06;124573;1097;64419;-83
2021/05/03 08:09:05;;;;;;;1.63;1.50;;;;;;;9.04;61.24;99116.10;124895;1096;64448;-84
2021/05/03 08:11:33;;;;;;;1.80;1.70;;;;;;;8.91;61.24;99113.30;124912;1101;64343;-82
2021/05/03 08:14:00;;;;;;;3.20;1.90;;;;;;;8.78;61.62;99121.13;125058;1101;64313;-82
2021/05/03 08:16:36;;;;;;;2.70;1.90;;;;;;;8.73;61.58;99123.19;124857;1101;64330;-87
2021/05/03 08:19:06;;;;;;;3.13;1.70;;;;;;;8.86;62.20;99133.97;125012;1096;64336;-85
2021/05/03 08:21:33;;;;;;;3.83;1.97;;;;;;;9.04;61.62;99134.71;124933;1101;64322;-83
2021/05/03 08:23:59;;;;;;;3.23;1.63;;;;;;;9.29;61.34;99136.77;125352;1101;64310;-85
2021/05/03 08:26:26;;;;;;;3.00;2.20;;;;;;;9.57;60.96;99136.83;124865;1101;64326;-84
2021/05/03 08:28:53;;;;;;;2.23;1.90;;;;;;;9.89;61.55;99136.66;124925;1096;64390;-82
2021/05/03 08:31:19;;;;;;;3.10;2.03;;;;;;;10.24;58.41;99137.14;124934;1096;64383;-84
2021/05/03 08:33:46;;;;;;;3.60;2.20;;;;;;;10.45;58.58;99124.29;124908;1096;64766;-83
2021/05/03 08:36:13;;;;;;;2.57;1.90;;;;;;;10.59;55.27;99138.53;124923;1096;64224;-83
2021/05/03 08:38:40;;;;;;;1.77;1.60;;;;;;;10.62;55.78;99136.52;124849;1101;64339;-83
2021/05/03 08:41:07;;;;;;;2.63;2.07;;;;;;;10.81;56.09;99138.83;125263;1096;64315;-82
2021/05/03 08:43:39;;;;;;;2.43;1.50;;;;;;;10.87;54.20;99140.23;125330;1101;63174;-84
2021/05/03 08:46:09;;;;;;;2.27;1.73;;;;;;;10.94;55.82;99144.21;124840;1101;64470;-83
2021/05/03 08:53:35;;;;;;;2.90;1.83;;;;;;;11.22;54.66;99143.23;124818;1101;64463;-83
2021/05/03 08:56:02;;;;;;;1.50;1.40;;;;;;;11.13;52.70;99142.02;124946;1096;64339;-83
2021/05/03 08:58:29;;;;;;;1.73;1.10;;;;;;;10.94;54.49;99138.88;124828;1101;64389;-83
2021/05/03 09:00:56;;;;;;;3.67;1.53;;;;;;;10.72;53.02;99150.11;124858;1096;64332;-83
2021/05/03 09:03:23;;;;;;;1.97;1.23;;;;;;;10.45;53.78;99152.72;124927;1096;64345;-82
2021/05/03 09:05:50;;;;;;;2.23;1.60;;;;;;;10.44;54.73;99151.02;124924;1101;64366;-83
2021/05/03 09:08:24;;;;;;;2.70;1.60;;;;;;;10.45;55.06;99142.94;124576;1101;64431;-83
2021/05/03 09:10:53;;;;;;;2.30;1.90;;;;;;;10.51;55.82;99152.34;124892;1096;64288;-83
2021/05/03 09:13:30;;;;;;;2.53;1.93;;;;;;;10.48;54.88;99153.39;124857;1096;64342;-84
2021/05/03 09:16:13;;;;;;;2.50;1.90;;;;;;;10.37;55.05;99157.68;124997;1096;64352;-90
2021/05/03 09:18:41;;;;;;;2.50;1.60;;;;;;;10.23;53.87;99150.53;125186;1096;64330;-84
2021/05/03 09:21:31;;;;;;;1.97;1.50;;;;;;;10.10;53.29;99153.95;124985;1101;64371;-84
2021/05/03 09:24:19;;;;;;;1.50;1.37;;;;;;;9.88;53.38;99153.59;124978;1101;64368;-83
2021/05/03 09:27:04;;;;;;;3.60;2.10;;;;;;;9.75;55.07;99165.95;125414;1095;64269;-86
2021/05/03 09:29:31;;;;;;;1.90;1.65;;;;;;;9.77;54.89;99159.58;125257;1101;64395;-85
2021/05/03 09:32:04;;;;;;;1.90;1.57;;;;;;;9.92;55.31;99157.77;125841;1096;64323;-83
2021/05/03 09:34:53;;;;;;;1.90;1.70;;;;;;;10.15;55.36;99163.48;125494;1101;64475;-84
2021/05/03 09:37:31;;;;;;;1.93;1.77;;;;;;;10.31;54.13;99164.25;125168;1101;64352;-84
2021/05/03 09:40:03;;;;;;;3.50;1.90;;;;;;;10.58;54.15;99155.45;125109;1101;64335;-84
2021/05/03 09:42:50;;;;;;;4.13;2.10;;;;;;;10.81;53.29;99154.82;125275;1096;64329;-83
2021/05/03 09:45:25;;;;;;;2.63;1.80;;;;;;;10.84;52.78;99159.09;124925;1102;65874;-84
2021/05/03 09:47:54;;;;;;;2.43;1.80;;;;;;;10.89;53.37;99156.98;125074;1096;64357;-83
2021/05/03 09:50:24;;;;;;;2.43;1.70;;;;;;;11.11;52.57;99154.63;125114;1101;64338;-84
2021/05/03 09:53:03;;;;;;;2.95;1.80;;;;;;;11.17;52.29;99156.88;124999;1101;64357;-85
2021/05/03 09:55:32;;;;;;;3.47;2.53;;;;;;;11.03;51.64;99156.92;125004;1101;64307;-84
2021/05/03 09:58:06;;;;;;;3.57;2.53;;;;;;;10.87;51.52;99164.22;125373;1101;64349;-83
2021/05/03 10:00:36;;;;;;;4.77;3.00;;;;;;;10.94;51.17;99157.55;124999;1102;64400;-84
2021/05/03 10:03:36;;;;;;;4.03;2.57;;;;;;;10.94;50.52;99153.06;124844;1102;64320;-84
2021/05/03 10:06:07;;;;;;;2.98;2.68;;;;;;;10.90;50.12;99156.91;124942;1096;64422;-84
2021/05/03 10:08:36;;;;;;;2.50;2.27;;;;;;;11.11;49.56;99146.63;125201;1096;64364;-84
2021/05/03 10:11:09;;;;;;;4.57;2.10;;;;;;;11.38;48.30;99143.91;125331;1101;64367;-85
2021/05/03 10:13:41;;;;;;;2.40;2.17;;;;;;;11.46;48.79;99146.05;125255;1101;64458;-85
2021/05/03 10:16:09;;;;;;;2.40;2.20;;;;;;;11.39;47.85;99153.61;125198;1101;64336;-85
2021/05/03 10:18:41;;;;;;;2.95;1.50;;;;;;;11.20;45.64;99154.00;124991;1097;64371;-84
2021/05/03 10:21:13;;;;;;;3.83;1.90;;;;;;;11.39;47.83;99145.60;125141;1096;64275;-84
2021/05/03 10:23:43;;;;;;;2.67;1.63;;;;;;;11.58;47.42;99141.67;125153;1101;64342;-84
2021/05/03 10:26:11;;;;;;;3.93;1.60;;;;;;;11.91;47.60;99138.52;125160;1096;64424;-83
2021/05/03 10:28:56;;;;;;;3.10;2.03;;;;;;;11.97;46.36;99147.91;125111;1101;64307;-83
2021/05/03 10:31:24;;;;;;;2.77;1.87;;;;;;;11.88;47.16;99144.09;125214;1101;64406;-84
2021/05/03 10:33:52;;;;;;;2.15;1.80;;;;;;;11.86;46.13;99146.84;125127;1096;64332;-84
2021/05/03 10:36:38;;;;;;;2.90;1.53;;;;;;;11.80;45.49;99146.41;125154;1096;64314;-84
2021/05/03 10:39:27;;;;;;;3.87;2.00;;;;;;;11.80;46.73;99143.73;125314;1101;64670;-84
2021/05/03 10:42:07;;;;;;;3.03;1.95;;;;;;;11.75;45.64;99138.70;125514;1101;64326;-84
2021/05/03 10:44:37;;;;;;;1.85;1.50;;;;;;;11.45;44.89;99149.66;125423;1096;64332;-84
2021/05/03 10:47:28;;;;;;;4.33;1.83;;;;;;;11.20;45.76;99150.48;125542;1101;64455;-84
2021/05/03 10:49:55;;;;;;;3.47;2.13;;;;;;;10.85;45.57;99156.34;125483;1096;64333;-85
2021/05/03 10:52:37;;;;;;;3.47;2.57;;;;;;;10.60;46.56;99158.88;125117;1101;64443;-83
2021/05/03 10:55:05;;;;;;;4.33;2.03;;;;;;;10.39;46.63;99166.44;125327;1096;64238;-83
2021/05/03 10:57:35;;;;;;;3.20;2.17;;;;;;;10.24;46.87;99171.77;125409;1096;64381;-84
2021/05/03 11:00:05;;;;;;;3.47;2.37;;;;;;;10.09;46.23;99172.72;125719;1096;64328;-84
2021/05/03 11:02:35;;;;;;;3.37;1.93;;;;;;;9.97;45.68;99168.98;125758;1101;64238;-84
2021/05/03 11:05:11;;;;;;;7.47;4.43;;;;;;;9.93;46.49;99179.94;125379;1101;64280;-84
2021/05/03 11:08:04;;;;;;;6.80;5.10;;;;;;;9.87;46.68;99174.05;125693;1096;64371;-84
2021/05/03 11:11:03;;;;;;;4.97;2.97;;;;;;;9.85;46.36;99177.75;125483;1101;64323;-84
2021/05/03 11:13:37;;;;;;;2.20;1.98;;;;;;;9.93;47.64;99182.61;125323;1101;64270;-84
2021/05/03 11:16:36;;;;;;;3.13;1.87;;;;;;;9.99;47.09;99174.23;125217;1101;64330;-84
2021/05/03 11:19:37;;;;;;;2.73;1.63;;;;;;;10.09;47.74;99181.55;124985;1096;64461;-82
2021/05/03 11:22:08;;;;;;;3.63;1.70;;;;;;;10.24;48.15;99182.42;125477;1101;64469;-84
2021/05/03 11:24:59;;;;;;;2.97;2.03;;;;;;;10.39;47.21;99183.27;125638;1096;64259;-84
2021/05/03 11:30:27;;;;;;;2.67;1.13;;;;;;;10.83;46.80;99178.73;125740;1101;64310;-84
2021/05/03 11:33:02;;;;;;;1.83;1.20;;;;;;;11.09;47.43;99179.69;125456;1101;64371;-84
2021/05/03 11:35:49;;;;;;;4.40;1.67;;;;;;;11.36;46.38;99172.50;125541;1101;64470;-84
2021/05/03 11:38:39;;;;;;;2.27;1.20;;;;;;;11.54;45.66;99172.22;125505;1101;64422;-84
2021/05/03 11:41:14;;;;;;;2.27;1.30;;;;;;;11.67;45.55;99177.58;125446;1101;64248;-84
2021/05/03 11:46:25;;;;;;;2.40;1.70;;;;;;;11.98;45.19;99161.18;125638;1101;64239;-85
2021/05/03 11:48:53;;;;;;;2.13;1.57;;;;;;;12.23;45.49;99156.77;125644;1101;64422;-84
2021/05/03 11:51:20;;;;;;;2.30;1.77;;;;;;;12.43;45.98;99153.52;125468;1101;64303;-84
2021/05/03 11:53:47;;;;;;;2.53;1.83;;;;;;;12.55;46.20;99162.46;125481;1101;64365;-83
2021/05/03 11:56:30;;;;;;;3.73;2.30;;;;;;;12.51;45.03;99169.02;125537;1101;64324;-84
2021/05/03 11:58:59;;;;;;;3.10;2.33;;;;;;;12.19;45.06;99160.60;125456;1101;64357;-84
2021/05/03 12:01:28;;;;;;;3.27;2.03;;;;;;;11.78;45.38;99172.35;125462;1096;64343;-84
2021/05/03 12:04:00;;;;;;;3.10;1.70;;;;;;;11.38;46.87;99167.92;125506;1101;64394;-84
2021/05/03 12:06:37;;;;;;;2.67;1.80;;;;;;;11.08;46.97;99170.81;125331;1101;64303;-84
2021/05/03 12:09:13;;;;;;;2.57;2.13;;;;;;;10.90;46.94;99180.02;125265;1097;64323;-84
2021/05/03 12:11:58;;;;;;;3.07;1.80;;;;;;;10.83;47.69;99174.25;124796;1097;64384;-85
2021/05/03 12:14:51;;;;;;;2.67;1.83;;;;;;;10.96;47.43;99175.16;125151;1097;64403;-88